sensor_id;sensor_type;location;lat;lon;timestamp;temperature;humidity
5560;DHT22;2803;47.916;8.074;2023-05-16T00:01:45;14.20;99.90
5560;DHT22;2803;47.916;8.074;2023-05-16T00:04:12;14.40;99.90
5560;DHT22;2803;47.916;8.074;2023-05-16T00:06:38;14.30;99.90
5560;DHT22;2803;47.916;8.074;2023-05-16T00:09:05;14.40;99.90
5560;DHT22;2803;47.916;8.074;2023-05-16T00:11:33;14.30;99.90
5560;DHT22;2803;47.916;8.074;2023-05-16T00:14:00;14.30;99.90
5560;DHT22;2803;47.916;8.074;2023-05-16T00:16:26;14.30;99.90
5560;DHT22;2803;47.916;8.074;2023-05-16T00:18:54;14.40;99.90
5560;DHT22;2803;47.916;8.074;2023-05-16T00:21:21;14.50;99.90
5560;DHT22;2803;47.916;8.074;2023-05-16T00:23:49;14.60;99.90
5560;DHT22;2803;47.916;8.074;2023-05-16T00:26:15;14.60;99.90
5560;DHT22;2803;47.916;8.074;2023-05-16T00:28:43;14.50;99.90
5560;DHT22;2803;47.916;8.074;2023-05-16T00:31:10;14.40;99.90
5560;DHT22;2803;47.916;8.074;2023-05-16T00:33:37;14.40;99.90
5560;DHT22;2803;47.916;8.074;2023-05-16T00:36:03;14.50;99.90
5560;DHT22;2803;47.916;8.074;2023-05-16T00:38:30;14.60;99.90
5560;DHT22;2803;47.916;8.074;2023-05-16T00:40:57;14.60;99.90
5560;DHT22;2803;47.916;8.074;2023-05-16T00:43:24;14.70;99.90
5560;DHT22;2803;47.916;8.074;2023-05-16T00:45:52;14.60;99.90
5560;DHT22;2803;47.916;8.074;2023-05-16T00:48:18;14.60;99.90
5560;DHT22;2803;47.916;8.074;2023-05-16T00:50:45;14.60;99.90
5560;DHT22;2803;47.916;8.074;2023-05-16T00:53:12;14.60;99.90
5560;DHT22;2803;47.916;8.074;2023-05-16T00:55:38;14.60;99.90
5560;DHT22;2803;47.916;8.074;2023-05-16T00:58:05;14.60;99.90
5560;DHT22;2803;47.916;8.074;2023-05-16T01:00:32;14.60;99.90
5560;DHT22;2803;47.916;8.074;2023-05-16T01:03:00;14.30;99.90
5560;DHT22;2803;47.916;8.074;2023-05-16T01:05:28;14.30;99.90
5560;DHT22;2803;47.916;8.074;2023-05-16T01:07:55;14.50;99.90
5560;DHT22;2803;47.916;8.074;2023-05-16T01:10:22;14.50;99.90
5560;DHT22;2803;47.916;8.074;2023-05-16T01:12:59;14.60;99.90
5560;DHT22;2803;47.916;8.074;2023-05-16T01:15:29;14.60;99.90
5560;DHT22;2803;47.916;8.074;2023-05-16T01:18:02;14.70;99.90
5560;DHT22;2803;47.916;8.074;2023-05-16T01:20:38;14.80;99.90
5560;DHT22;2803;47.916;8.074;2023-05-16T01:23:18;14.60;99.90
5560;DHT22;2803;47.916;8.074;2023-05-16T01:25:55;14.60;99.90
5560;DHT22;2803;47.916;8.074;2023-05-16T01:28:24;14.60;99.90
5560;DHT22;2803;47.916;8.074;2023-05-16T01:30:51;14.60;99.90
5560;DHT22;2803;47.916;8.074;2023-05-16T01:33:18;14.70;99.90
5560;DHT22;2803;47.916;8.074;2023-05-16T01:35:49;14.80;99.90
5560;DHT22;2803;47.916;8.074;2023-05-16T01:38:25;14.80;99.90
5560;DHT22;2803;47.916;8.074;2023-05-16T01:40:54;14.80;99.90
5560;DHT22;2803;47.916;8.074;2023-05-16T01:43:29;14.80;99.90
5560;DHT22;2803;47.916;8.074;2023-05-16T01:46:03;14.80;99.90
5560;DHT22;2803;47.916;8.074;2023-05-16T01:48:36;14.80;99.90
5560;DHT22;2803;47.916;8.074;2023-05-16T01:51:05;14.80;99.90
5560;DHT22;2803;47.916;8.074;2023-05-16T01:53:35;14.80;99.90
5560;DHT22;2803;47.916;8.074;2023-05-16T01:56:03;14.90;99.90
5560;DHT22;2803;47.916;8.074;2023-05-16T01:58:32;14.90;99.90
5560;DHT22;2803;47.916;8.074;2023-05-16T02:01:00;14.80;99.90
5560;DHT22;2803;47.916;8.074;2023-05-16T02:03:28;14.90;99.90
5560;DHT22;2803;47.916;8.074;2023-05-16T02:05:54;14.80;99.90
5560;DHT22;2803;47.916;8.074;2023-05-16T02:08:22;14.80;99.90
5560;DHT22;2803;47.916;8.074;2023-05-16T02:10:49;14.90;99.90
5560;DHT22;2803;47.916;8.074;2023-05-16T02:13:16;14.90;99.90
5560;DHT22;2803;47.916;8.074;2023-05-16T02:15:44;14.80;99.90
5560;DHT22;2803;47.916;8.074;2023-05-16T02:18:11;14.80;99.90
5560;DHT22;2803;47.916;8.074;2023-05-16T02:20:38;14.80;99.90
5560;DHT22;2803;47.916;8.074;2023-05-16T02:23:05;14.80;99.90
5560;DHT22;2803;47.916;8.074;2023-05-16T02:25:31;14.80;99.90
5560;DHT22;2803;47.916;8.074;2023-05-16T02:27:58;14.80;99.90
5560;DHT22;2803;47.916;8.074;2023-05-16T02:30:24;14.80;99.90
5560;DHT22;2803;47.916;8.074;2023-05-16T02:32:52;14.80;99.90
5560;DHT22;2803;47.916;8.074;2023-05-16T02:35:19;14.80;99.90
5560;DHT22;2803;47.916;8.074;2023-05-16T02:37:46;14.90;99.90
5560;DHT22;2803;47.916;8.074;2023-05-16T02:40:13;14.70;99.90
5560;DHT22;2803;47.916;8.074;2023-05-16T02:42:39;14.70;99.90
5560;DHT22;2803;47.916;8.074;2023-05-16T02:45:06;14.70;99.90
5560;DHT22;2803;47.916;8.074;2023-05-16T02:47:33;14.80;99.90
5560;DHT22;2803;47.916;8.074;2023-05-16T02:50:01;14.80;99.90
5560;DHT22;2803;47.916;8.074;2023-05-16T02:52:28;14.70;99.90
5560;DHT22;2803;47.916;8.074;2023-05-16T02:54:54;14.70;99.90
5560;DHT22;2803;47.916;8.074;2023-05-16T02:57:21;14.60;99.90
5560;DHT22;2803;47.916;8.074;2023-05-16T02:59:48;14.60;99.90
5560;DHT22;2803;47.916;8.074;2023-05-16T03:02:14;14.60;99.90
5560;DHT22;2803;47.916;8.074;2023-05-16T03:04:41;14.70;99.90
5560;DHT22;2803;47.916;8.074;2023-05-16T03:07:09;14.70;99.90
5560;DHT22;2803;47.916;8.074;2023-05-16T03:09:35;14.60;99.90
5560;DHT22;2803;47.916;8.074;2023-05-16T03:12:02;14.70;99.90
5560;DHT22;2803;47.916;8.074;2023-05-16T03:14:29;14.40;99.90
5560;DHT22;2803;47.916;8.074;2023-05-16T03:16:55;14.40;99.90
5560;DHT22;2803;47.916;8.074;2023-05-16T03:19:22;14.40;99.90
5560;DHT22;2803;47.916;8.074;2023-05-16T03:21:48;14.40;99.90
5560;DHT22;2803;47.916;8.074;2023-05-16T03:24:16;14.50;99.90
5560;DHT22;2803;47.916;8.074;2023-05-16T03:26:43;14.40;99.90
5560;DHT22;2803;47.916;8.074;2023-05-16T03:29:09;14.50;99.90
5560;DHT22;2803;47.916;8.074;2023-05-16T03:31:36;14.50;99.90
5560;DHT22;2803;47.916;8.074;2023-05-16T03:34:02;14.60;99.90
5560;DHT22;2803;47.916;8.074;2023-05-16T03:36:29;14.60;99.90
5560;DHT22;2803;47.916;8.074;2023-05-16T03:38:56;14.70;99.90
5560;DHT22;2803;47.916;8.074;2023-05-16T03:41:23;14.80;99.90
5560;DHT22;2803;47.916;8.074;2023-05-16T03:43:50;14.80;99.90
5560;DHT22;2803;47.916;8.074;2023-05-16T03:46:17;14.90;99.90
5560;DHT22;2803;47.916;8.074;2023-05-16T03:48:44;14.80;99.90
5560;DHT22;2803;47.916;8.074;2023-05-16T03:51:10;14.80;99.90
5560;DHT22;2803;47.916;8.074;2023-05-16T03:53:37;14.90;99.90
5560;DHT22;2803;47.916;8.074;2023-05-16T03:56:04;15.00;99.90
5560;DHT22;2803;47.916;8.074;2023-05-16T03:58:32;15.00;99.90
5560;DHT22;2803;47.916;8.074;2023-05-16T04:00:59;15.00;99.90
5560;DHT22;2803;47.916;8.074;2023-05-16T04:03:25;15.10;99.90
5560;DHT22;2803;47.916;8.074;2023-05-16T04:05:54;15.10;99.90
5560;DHT22;2803;47.916;8.074;2023-05-16T04:08:21;15.00;99.90
5560;DHT22;2803;47.916;8.074;2023-05-16T04:10:48;14.90;99.90
5560;DHT22;2803;47.916;8.074;2023-05-16T04:13:14;14.70;99.90
5560;DHT22;2803;47.916;8.074;2023-05-16T04:15:42;14.80;99.90
5560;DHT22;2803;47.916;8.074;2023-05-16T04:18:09;14.70;99.90
5560;DHT22;2803;47.916;8.074;2023-05-16T04:20:36;14.50;99.90
5560;DHT22;2803;47.916;8.074;2023-05-16T04:23:02;14.10;99.90
5560;DHT22;2803;47.916;8.074;2023-05-16T04:25:29;14.00;99.90
5560;DHT22;2803;47.916;8.074;2023-05-16T04:27:56;13.70;99.90
5560;DHT22;2803;47.916;8.074;2023-05-16T04:30:23;13.90;99.90
5560;DHT22;2803;47.916;8.074;2023-05-16T04:32:50;14.00;99.90
5560;DHT22;2803;47.916;8.074;2023-05-16T04:35:17;13.70;99.90
5560;DHT22;2803;47.916;8.074;2023-05-16T04:37:44;13.90;99.90
5560;DHT22;2803;47.916;8.074;2023-05-16T04:40:11;14.10;99.90
5560;DHT22;2803;47.916;8.074;2023-05-16T04:42:38;14.10;99.90
5560;DHT22;2803;47.916;8.074;2023-05-16T04:45:06;14.10;99.90
5560;DHT22;2803;47.916;8.074;2023-05-16T04:47:35;14.20;99.90
5560;DHT22;2803;47.916;8.074;2023-05-16T04:50:03;14.20;99.90
5560;DHT22;2803;47.916;8.074;2023-05-16T04:52:30;14.20;99.90
5560;DHT22;2803;47.916;8.074;2023-05-16T04:54:57;14.20;99.90
5560;DHT22;2803;47.916;8.074;2023-05-16T04:57:25;14.20;99.90
5560;DHT22;2803;47.916;8.074;2023-05-16T04:59:52;14.10;99.90
5560;DHT22;2803;47.916;8.074;2023-05-16T05:02:19;14.20;99.90
5560;DHT22;2803;47.916;8.074;2023-05-16T05:04:46;14.20;99.90
5560;DHT22;2803;47.916;8.074;2023-05-16T05:07:13;14.30;99.90
5560;DHT22;2803;47.916;8.074;2023-05-16T05:09:40;14.00;99.90
5560;DHT22;2803;47.916;8.074;2023-05-16T05:12:07;14.10;99.90
5560;DHT22;2803;47.916;8.074;2023-05-16T05:14:34;14.10;99.90
5560;DHT22;2803;47.916;8.074;2023-05-16T05:17:02;14.00;99.90
5560;DHT22;2803;47.916;8.074;2023-05-16T05:19:29;14.20;99.90
5560;DHT22;2803;47.916;8.074;2023-05-16T05:21:55;14.20;99.90
5560;DHT22;2803;47.916;8.074;2023-05-16T05:24:23;14.20;99.90
5560;DHT22;2803;47.916;8.074;2023-05-16T05:26:50;14.00;99.90
5560;DHT22;2803;47.916;8.074;2023-05-16T05:29:16;13.70;99.90
5560;DHT22;2803;47.916;8.074;2023-05-16T05:31:43;13.40;99.90
5560;DHT22;2803;47.916;8.074;2023-05-16T05:34:09;13.60;99.90
5560;DHT22;2803;47.916;8.074;2023-05-16T05:36:36;13.60;99.90
5560;DHT22;2803;47.916;8.074;2023-05-16T05:39:03;13.60;99.90
5560;DHT22;2803;47.916;8.074;2023-05-16T05:41:30;13.40;99.90
5560;DHT22;2803;47.916;8.074;2023-05-16T05:43:57;13.30;99.90
5560;DHT22;2803;47.916;8.074;2023-05-16T05:46:24;13.20;99.90
5560;DHT22;2803;47.916;8.074;2023-05-16T05:48:51;13.50;99.90
5560;DHT22;2803;47.916;8.074;2023-05-16T05:51:17;13.50;99.90
5560;DHT22;2803;47.916;8.074;2023-05-16T05:53:44;13.40;99.90
5560;DHT22;2803;47.916;8.074;2023-05-16T05:56:11;13.60;99.90
5560;DHT22;2803;47.916;8.074;2023-05-16T05:58:39;13.40;99.90
5560;DHT22;2803;47.916;8.074;2023-05-16T06:01:06;13.20;99.90
5560;DHT22;2803;47.916;8.074;2023-05-16T06:03:33;13.40;99.90
5560;DHT22;2803;47.916;8.074;2023-05-16T06:06:00;13.50;99.90
5560;DHT22;2803;47.916;8.074;2023-05-16T06:08:26;13.40;99.90
5560;DHT22;2803;47.916;8.074;2023-05-16T06:10:53;13.30;99.90
5560;DHT22;2803;47.916;8.074;2023-05-16T06:13:20;13.50;99.90
5560;DHT22;2803;47.916;8.074;2023-05-16T06:15:50;13.10;99.90
5560;DHT22;2803;47.916;8.074;2023-05-16T06:18:17;13.10;99.90
5560;DHT22;2803;47.916;8.074;2023-05-16T06:20:44;12.60;99.90
5560;DHT22;2803;47.916;8.074;2023-05-16T06:23:10;13.00;99.90
5560;DHT22;2803;47.916;8.074;2023-05-16T06:25:37;13.40;99.90
5560;DHT22;2803;47.916;8.074;2023-05-16T06:28:04;13.40;99.90
5560;DHT22;2803;47.916;8.074;2023-05-16T06:30:30;13.20;99.90
5560;DHT22;2803;47.916;8.074;2023-05-16T06:32:58;13.20;99.90
5560;DHT22;2803;47.916;8.074;2023-05-16T06:35:25;13.40;99.90
5560;DHT22;2803;47.916;8.074;2023-05-16T06:37:51;13.50;99.90
5560;DHT22;2803;47.916;8.074;2023-05-16T06:40:18;13.40;99.90
5560;DHT22;2803;47.916;8.074;2023-05-16T06:42:45;13.30;99.90
5560;DHT22;2803;47.916;8.074;2023-05-16T06:45:11;13.20;99.90
5560;DHT22;2803;47.916;8.074;2023-05-16T06:47:38;13.00;99.90
5560;DHT22;2803;47.916;8.074;2023-05-16T06:50:07;12.00;99.90
5560;DHT22;2803;47.916;8.074;2023-05-16T06:52:34;12.10;99.90
5560;DHT22;2803;47.916;8.074;2023-05-16T06:55:01;12.60;99.90
5560;DHT22;2803;47.916;8.074;2023-05-16T06:57:28;12.90;99.90
5560;DHT22;2803;47.916;8.074;2023-05-16T06:59:54;13.00;99.90
5560;DHT22;2803;47.916;8.074;2023-05-16T07:02:21;13.40;99.90
5560;DHT22;2803;47.916;8.074;2023-05-16T07:04:47;13.60;99.90
5560;DHT22;2803;47.916;8.074;2023-05-16T07:07:15;13.60;99.90
5560;DHT22;2803;47.916;8.074;2023-05-16T07:09:42;13.20;99.90
5560;DHT22;2803;47.916;8.074;2023-05-16T07:12:08;13.10;99.90
5560;DHT22;2803;47.916;8.074;2023-05-16T07:14:35;12.80;99.90
5560;DHT22;2803;47.916;8.074;2023-05-16T07:17:02;13.10;99.90
5560;DHT22;2803;47.916;8.074;2023-05-16T07:19:28;13.30;99.90
5560;DHT22;2803;47.916;8.074;2023-05-16T07:21:55;13.30;99.90
5560;DHT22;2803;47.916;8.074;2023-05-16T07:24:23;13.60;99.90
5560;DHT22;2803;47.916;8.074;2023-05-16T07:26:49;13.60;99.90
5560;DHT22;2803;47.916;8.074;2023-05-16T07:29:16;13.60;99.90
5560;DHT22;2803;47.916;8.074;2023-05-16T07:31:43;13.40;99.90
5560;DHT22;2803;47.916;8.074;2023-05-16T07:34:09;13.20;99.90
5560;DHT22;2803;47.916;8.074;2023-05-16T07:36:36;13.10;99.90
5560;DHT22;2803;47.916;8.074;2023-05-16T07:39:03;13.20;99.90
5560;DHT22;2803;47.916;8.074;2023-05-16T07:41:31;13.30;99.90
5560;DHT22;2803;47.916;8.074;2023-05-16T07:43:57;13.40;99.90
5560;DHT22;2803;47.916;8.074;2023-05-16T07:46:24;13.50;99.90
5560;DHT22;2803;47.916;8.074;2023-05-16T07:48:50;13.50;99.90
5560;DHT22;2803;47.916;8.074;2023-05-16T07:51:17;13.40;99.90
5560;DHT22;2803;47.916;8.074;2023-05-16T07:53:44;13.30;99.90
5560;DHT22;2803;47.916;8.074;2023-05-16T07:56:10;13.40;99.90
5560;DHT22;2803;47.916;8.074;2023-05-16T07:58:40;13.10;99.90
5560;DHT22;2803;47.916;8.074;2023-05-16T08:01:06;13.50;99.90
5560;DHT22;2803;47.916;8.074;2023-05-16T08:03:34;13.80;99.90
5560;DHT22;2803;47.916;8.074;2023-05-16T08:06:00;13.90;99.90
5560;DHT22;2803;47.916;8.074;2023-05-16T08:08:27;13.80;99.90
5560;DHT22;2803;47.916;8.074;2023-05-16T08:10:54;13.90;99.90
5560;DHT22;2803;47.916;8.074;2023-05-16T08:13:20;13.70;99.90
5560;DHT22;2803;47.916;8.074;2023-05-16T08:15:48;13.80;99.90
5560;DHT22;2803;47.916;8.074;2023-05-16T08:18:15;13.90;99.90
5560;DHT22;2803;47.916;8.074;2023-05-16T08:20:41;13.80;99.90
5560;DHT22;2803;47.916;8.074;2023-05-16T08:23:08;13.60;99.90
5560;DHT22;2803;47.916;8.074;2023-05-16T08:25:35;12.70;99.90
5560;DHT22;2803;47.916;8.074;2023-05-16T08:28:02;12.70;99.90
5560;DHT22;2803;47.916;8.074;2023-05-16T08:30:28;12.80;99.90
5560;DHT22;2803;47.916;8.074;2023-05-16T08:32:56;13.30;99.90
5560;DHT22;2803;47.916;8.074;2023-05-16T08:35:23;13.10;99.90
5560;DHT22;2803;47.916;8.074;2023-05-16T08:37:49;12.60;99.90
5560;DHT22;2803;47.916;8.074;2023-05-16T08:40:16;12.70;99.90
5560;DHT22;2803;47.916;8.074;2023-05-16T08:42:43;12.20;99.90
5560;DHT22;2803;47.916;8.074;2023-05-16T08:45:10;12.30;99.90
5560;DHT22;2803;47.916;8.074;2023-05-16T08:47:38;12.90;99.90
5560;DHT22;2803;47.916;8.074;2023-05-16T08:50:08;13.10;99.90
5560;DHT22;2803;47.916;8.074;2023-05-16T08:52:37;13.10;99.90
5560;DHT22;2803;47.916;8.074;2023-05-16T08:55:05;13.30;99.90
5560;DHT22;2803;47.916;8.074;2023-05-16T08:57:34;13.60;99.90
5560;DHT22;2803;47.916;8.074;2023-05-16T09:00:01;13.30;99.90
5560;DHT22;2803;47.916;8.074;2023-05-16T09:02:36;13.50;99.90
5560;DHT22;2803;47.916;8.074;2023-05-16T09:05:03;13.30;99.90
5560;DHT22;2803;47.916;8.074;2023-05-16T09:07:32;13.40;99.90
5560;DHT22;2803;47.916;8.074;2023-05-16T09:09:59;13.60;99.90
5560;DHT22;2803;47.916;8.074;2023-05-16T09:12:25;13.50;99.90
5560;DHT22;2803;47.916;8.074;2023-05-16T09:14:52;13.70;99.90
5560;DHT22;2803;47.916;8.074;2023-05-16T09:17:20;13.60;99.90
5560;DHT22;2803;47.916;8.074;2023-05-16T09:19:46;13.80;99.90
5560;DHT22;2803;47.916;8.074;2023-05-16T09:22:15;13.90;99.90
5560;DHT22;2803;47.916;8.074;2023-05-16T09:24:44;14.10;99.90
5560;DHT22;2803;47.916;8.074;2023-05-16T09:27:12;14.20;99.90
5560;DHT22;2803;47.916;8.074;2023-05-16T09:29:40;14.20;99.90
5560;DHT22;2803;47.916;8.074;2023-05-16T09:32:09;14.30;99.90
5560;DHT22;2803;47.916;8.074;2023-05-16T09:34:38;14.30;99.90
5560;DHT22;2803;47.916;8.074;2023-05-16T09:37:05;14.20;99.90
5560;DHT22;2803;47.916;8.074;2023-05-16T09:39:31;14.20;99.90
5560;DHT22;2803;47.916;8.074;2023-05-16T09:41:59;14.10;99.90
5560;DHT22;2803;47.916;8.074;2023-05-16T09:44:26;14.00;99.90
5560;DHT22;2803;47.916;8.074;2023-05-16T09:46:53;14.30;99.90
5560;DHT22;2803;47.916;8.074;2023-05-16T09:49:20;14.30;99.90
5560;DHT22;2803;47.916;8.074;2023-05-16T09:51:47;14.20;99.90
5560;DHT22;2803;47.916;8.074;2023-05-16T09:54:13;14.20;99.90
5560;DHT22;2803;47.916;8.074;2023-05-16T09:56:48;14.00;99.90
5560;DHT22;2803;47.916;8.074;2023-05-16T09:59:17;14.00;99.90
5560;DHT22;2803;47.916;8.074;2023-05-16T10:01:44;14.00;99.90
5560;DHT22;2803;47.916;8.074;2023-05-16T10:04:11;14.20;99.90
5560;DHT22;2803;47.916;8.074;2023-05-16T10:06:41;14.00;99.90
5560;DHT22;2803;47.916;8.074;2023-05-16T10:09:10;14.10;99.90
5560;DHT22;2803;47.916;8.074;2023-05-16T10:11:38;14.00;99.90
5560;DHT22;2803;47.916;8.074;2023-05-16T10:14:06;13.50;99.90
5560;DHT22;2803;47.916;8.074;2023-05-16T10:16:34;13.70;99.90
5560;DHT22;2803;47.916;8.074;2023-05-16T10:19:02;13.60;99.90
5560;DHT22;2803;47.916;8.074;2023-05-16T10:21:31;13.90;99.90
5560;DHT22;2803;47.916;8.074;2023-05-16T10:24:02;14.00;99.90
5560;DHT22;2803;47.916;8.074;2023-05-16T10:26:30;14.10;99.90
5560;DHT22;2803;47.916;8.074;2023-05-16T10:28:58;14.20;99.90
5560;DHT22;2803;47.916;8.074;2023-05-16T10:31:26;14.30;99.90
5560;DHT22;2803;47.916;8.074;2023-05-16T10:33:56;14.20;99.90
5560;DHT22;2803;47.916;8.074;2023-05-16T10:36:23;14.20;99.90
5560;DHT22;2803;47.916;8.074;2023-05-16T10:38:50;14.20;99.90
5560;DHT22;2803;47.916;8.074;2023-05-16T10:41:18;14.50;99.90
5560;DHT22;2803;47.916;8.074;2023-05-16T10:43:55;14.40;99.90
5560;DHT22;2803;47.916;8.074;2023-05-16T10:46:23;14.20;99.90
5560;DHT22;2803;47.916;8.074;2023-05-16T10:48:49;14.40;99.90
5560;DHT22;2803;47.916;8.074;2023-05-16T10:51:34;14.40;99.90
5560;DHT22;2803;47.916;8.074;2023-05-16T10:54:04;14.40;99.90
5560;DHT22;2803;47.916;8.074;2023-05-16T10:56:32;14.60;99.90
5560;DHT22;2803;47.916;8.074;2023-05-16T10:58:59;14.70;99.90
5560;DHT22;2803;47.916;8.074;2023-05-16T11:01:27;14.70;99.90
5560;DHT22;2803;47.916;8.074;2023-05-16T11:04:09;14.80;99.90
5560;DHT22;2803;47.916;8.074;2023-05-16T11:06:50;14.80;99.90
5560;DHT22;2803;47.916;8.074;2023-05-16T11:09:20;14.70;99.90
5560;DHT22;2803;47.916;8.074;2023-05-16T11:11:54;14.60;99.90
5560;DHT22;2803;47.916;8.074;2023-05-16T11:14:22;14.80;99.90
5560;DHT22;2803;47.916;8.074;2023-05-16T11:16:50;14.70;99.90
5560;DHT22;2803;47.916;8.074;2023-05-16T11:19:32;14.60;99.90
5560;DHT22;2803;47.916;8.074;2023-05-16T11:22:11;14.30;99.90
5560;DHT22;2803;47.916;8.074;2023-05-16T11:24:48;14.50;99.90
5560;DHT22;2803;47.916;8.074;2023-05-16T11:27:21;14.40;99.90
5560;DHT22;2803;47.916;8.074;2023-05-16T11:29:48;14.50;99.90
5560;DHT22;2803;47.916;8.074;2023-05-16T11:32:19;14.40;99.90
5560;DHT22;2803;47.916;8.074;2023-05-16T11:34:47;14.20;99.90
5560;DHT22;2803;47.916;8.074;2023-05-16T11:37:16;14.40;99.90
5560;DHT22;2803;47.916;8.074;2023-05-16T11:39:44;14.10;99.90
5560;DHT22;2803;47.916;8.074;2023-05-16T11:42:10;14.30;99.90
5560;DHT22;2803;47.916;8.074;2023-05-16T11:44:37;14.50;99.90
5560;DHT22;2803;47.916;8.074;2023-05-16T11:47:04;14.40;99.90
5560;DHT22;2803;47.916;8.074;2023-05-16T11:49:31;13.70;99.90
5560;DHT22;2803;47.916;8.074;2023-05-16T11:52:00;13.70;99.90
5560;DHT22;2803;47.916;8.074;2023-05-16T11:54:28;14.00;99.90
5560;DHT22;2803;47.916;8.074;2023-05-16T11:56:54;14.20;99.90
5560;DHT22;2803;47.916;8.074;2023-05-16T11:59:21;14.30;99.90
5560;DHT22;2803;47.916;8.074;2023-05-16T12:01:48;14.40;99.90
5560;DHT22;2803;47.916;8.074;2023-05-16T12:04:16;14.40;99.90
5560;DHT22;2803;47.916;8.074;2023-05-16T12:06:57;14.50;99.90
5560;DHT22;2803;47.916;8.074;2023-05-16T12:09:25;13.90;99.90
5560;DHT22;2803;47.916;8.074;2023-05-16T12:11:53;13.90;99.90
5560;DHT22;2803;47.916;8.074;2023-05-16T12:14:20;14.20;99.90
5560;DHT22;2803;47.916;8.074;2023-05-16T12:16:47;14.10;99.90
5560;DHT22;2803;47.916;8.074;2023-05-16T12:19:14;14.00;99.90
5560;DHT22;2803;47.916;8.074;2023-05-16T12:21:41;14.10;99.90
5560;DHT22;2803;47.916;8.074;2023-05-16T12:24:09;14.10;99.90
5560;DHT22;2803;47.916;8.074;2023-05-16T12:26:39;14.10;99.90
5560;DHT22;2803;47.916;8.074;2023-05-16T12:29:09;14.10;99.90
5560;DHT22;2803;47.916;8.074;2023-05-16T12:31:37;13.90;99.90
5560;DHT22;2803;47.916;8.074;2023-05-16T12:34:11;14.20;99.90
5560;DHT22;2803;47.916;8.074;2023-05-16T12:36:39;14.40;99.90
5560;DHT22;2803;47.916;8.074;2023-05-16T12:39:07;13.80;99.90
5560;DHT22;2803;47.916;8.074;2023-05-16T12:41:40;13.80;99.90
5560;DHT22;2803;47.916;8.074;2023-05-16T12:44:12;14.00;99.90
5560;DHT22;2803;47.916;8.074;2023-05-16T12:46:41;14.20;99.90
5560;DHT22;2803;47.916;8.074;2023-05-16T12:49:08;14.10;99.90
5560;DHT22;2803;47.916;8.074;2023-05-16T12:51:34;14.30;99.90
5560;DHT22;2803;47.916;8.074;2023-05-16T12:54:07;14.40;99.90
5560;DHT22;2803;47.916;8.074;2023-05-16T12:56:34;14.40;99.90
5560;DHT22;2803;47.916;8.074;2023-05-16T12:59:00;14.50;99.90
5560;DHT22;2803;47.916;8.074;2023-05-16T13:01:28;14.70;99.90
5560;DHT22;2803;47.916;8.074;2023-05-16T13:03:55;14.20;99.90
5560;DHT22;2803;47.916;8.074;2023-05-16T13:06:22;13.50;99.90
5560;DHT22;2803;47.916;8.074;2023-05-16T13:08:48;14.00;99.90
5560;DHT22;2803;47.916;8.074;2023-05-16T13:11:15;14.30;99.90
5560;DHT22;2803;47.916;8.074;2023-05-16T13:13:43;14.60;99.90
5560;DHT22;2803;47.916;8.074;2023-05-16T13:16:09;14.70;99.90
5560;DHT22;2803;47.916;8.074;2023-05-16T13:18:37;14.60;99.90
5560;DHT22;2803;47.916;8.074;2023-05-16T13:21:04;14.50;99.90
5560;DHT22;2803;47.916;8.074;2023-05-16T13:23:31;14.40;99.90
5560;DHT22;2803;47.916;8.074;2023-05-16T13:25:58;14.10;99.90
5560;DHT22;2803;47.916;8.074;2023-05-16T13:28:25;14.00;99.90
5560;DHT22;2803;47.916;8.074;2023-05-16T13:30:51;14.10;99.90
5560;DHT22;2803;47.916;8.074;2023-05-16T13:33:18;14.10;99.90
5560;DHT22;2803;47.916;8.074;2023-05-16T13:35:46;13.80;99.90
5560;DHT22;2803;47.916;8.074;2023-05-16T13:38:13;14.00;99.90
5560;DHT22;2803;47.916;8.074;2023-05-16T13:40:39;14.20;99.90
5560;DHT22;2803;47.916;8.074;2023-05-16T13:43:06;14.50;99.90
5560;DHT22;2803;47.916;8.074;2023-05-16T13:45:32;14.60;99.90
5560;DHT22;2803;47.916;8.074;2023-05-16T13:47:59;14.50;99.90
5560;DHT22;2803;47.916;8.074;2023-05-16T13:50:26;14.30;99.90
5560;DHT22;2803;47.916;8.074;2023-05-16T13:52:54;14.10;99.90
5560;DHT22;2803;47.916;8.074;2023-05-16T13:55:20;14.10;99.90
5560;DHT22;2803;47.916;8.074;2023-05-16T13:57:48;14.00;99.90
5560;DHT22;2803;47.916;8.074;2023-05-16T14:00:15;13.50;99.90
5560;DHT22;2803;47.916;8.074;2023-05-16T14:02:42;13.40;99.90
5560;DHT22;2803;47.916;8.074;2023-05-16T14:05:09;13.40;99.90
5560;DHT22;2803;47.916;8.074;2023-05-16T14:07:36;13.80;99.90
5560;DHT22;2803;47.916;8.074;2023-05-16T14:10:04;13.70;99.90
5560;DHT22;2803;47.916;8.074;2023-05-16T14:12:31;13.00;99.90
5560;DHT22;2803;47.916;8.074;2023-05-16T14:14:57;13.00;99.90
5560;DHT22;2803;47.916;8.074;2023-05-16T14:17:24;13.20;99.90
5560;DHT22;2803;47.916;8.074;2023-05-16T14:19:51;13.00;99.90
5560;DHT22;2803;47.916;8.074;2023-05-16T14:22:17;12.90;99.90
5560;DHT22;2803;47.916;8.074;2023-05-16T14:24:44;12.40;99.90
5560;DHT22;2803;47.916;8.074;2023-05-16T14:27:12;12.10;99.90
5560;DHT22;2803;47.916;8.074;2023-05-16T14:29:41;11.90;99.90
5560;DHT22;2803;47.916;8.074;2023-05-16T14:32:09;12.10;99.90
5560;DHT22;2803;47.916;8.074;2023-05-16T14:34:36;12.40;99.90
5560;DHT22;2803;47.916;8.074;2023-05-16T14:37:03;12.50;99.90
5560;DHT22;2803;47.916;8.074;2023-05-16T14:39:29;12.40;99.90
5560;DHT22;2803;47.916;8.074;2023-05-16T14:41:56;12.00;99.90
5560;DHT22;2803;47.916;8.074;2023-05-16T14:44:24;12.00;99.90
5560;DHT22;2803;47.916;8.074;2023-05-16T14:46:50;12.10;99.90
5560;DHT22;2803;47.916;8.074;2023-05-16T14:49:17;11.80;99.90
5560;DHT22;2803;47.916;8.074;2023-05-16T14:51:43;11.90;99.90
5560;DHT22;2803;47.916;8.074;2023-05-16T14:54:13;12.20;99.90
5560;DHT22;2803;47.916;8.074;2023-05-16T14:56:40;12.10;99.90
5560;DHT22;2803;47.916;8.074;2023-05-16T14:59:07;12.30;99.90
5560;DHT22;2803;47.916;8.074;2023-05-16T15:01:35;12.20;99.90
5560;DHT22;2803;47.916;8.074;2023-05-16T15:04:01;12.30;99.90
5560;DHT22;2803;47.916;8.074;2023-05-16T15:06:28;12.20;99.90
5560;DHT22;2803;47.916;8.074;2023-05-16T15:08:54;12.00;99.90
5560;DHT22;2803;47.916;8.074;2023-05-16T15:11:21;11.30;99.90
5560;DHT22;2803;47.916;8.074;2023-05-16T15:13:48;11.00;99.90
5560;DHT22;2803;47.916;8.074;2023-05-16T15:16:14;11.40;99.90
5560;DHT22;2803;47.916;8.074;2023-05-16T15:18:42;11.50;99.90
5560;DHT22;2803;47.916;8.074;2023-05-16T15:21:09;11.70;99.90
5560;DHT22;2803;47.916;8.074;2023-05-16T15:23:35;11.80;99.90
5560;DHT22;2803;47.916;8.074;2023-05-16T15:26:02;12.10;99.90
5560;DHT22;2803;47.916;8.074;2023-05-16T15:28:29;12.30;99.90
5560;DHT22;2803;47.916;8.074;2023-05-16T15:30:56;12.40;99.90
5560;DHT22;2803;47.916;8.074;2023-05-16T15:33:22;12.10;99.90
5560;DHT22;2803;47.916;8.074;2023-05-16T15:35:50;12.00;99.90
5560;DHT22;2803;47.916;8.074;2023-05-16T15:38:17;12.10;99.90
5560;DHT22;2803;47.916;8.074;2023-05-16T15:40:44;12.10;99.90
5560;DHT22;2803;47.916;8.074;2023-05-16T15:43:10;12.00;99.90
5560;DHT22;2803;47.916;8.074;2023-05-16T15:45:37;12.00;99.90
5560;DHT22;2803;47.916;8.074;2023-05-16T15:48:04;12.00;99.90
5560;DHT22;2803;47.916;8.074;2023-05-16T15:50:30;12.20;99.90
5560;DHT22;2803;47.916;8.074;2023-05-16T15:52:58;12.20;99.90
5560;DHT22;2803;47.916;8.074;2023-05-16T15:55:25;12.20;99.90
5560;DHT22;2803;47.916;8.074;2023-05-16T15:57:51;12.00;99.90
5560;DHT22;2803;47.916;8.074;2023-05-16T16:00:21;11.90;99.90
5560;DHT22;2803;47.916;8.074;2023-05-16T16:02:48;11.60;99.90
5560;DHT22;2803;47.916;8.074;2023-05-16T16:05:14;11.40;99.90